createdAt,value
2019-04-16T00:01:45.606Z,99.90
2019-04-16T00:04:33.874Z,99.90
2019-04-16T00:07:20.525Z,99.90
2019-04-16T00:10:09.761Z,99.90
2019-04-16T00:12:58.871Z,99.90
2019-04-16T00:15:31.103Z,99.90
2019-04-16T00:18:02.733Z,99.90
2019-04-16T00:21:02.884Z,99.90
2019-04-16T00:23:25.229Z,99.90
2019-04-16T00:25:56.427Z,99.90
2019-04-16T00:28:30.812Z,99.90
2019-04-16T00:31:04.658Z,99.90
2019-04-16T00:33:39.394Z,99.90
2019-04-16T00:36:06.901Z,99.90
2019-04-16T00:38:40.872Z,99.90
2019-04-16T00:41:08.586Z,99.90
2019-04-16T00:43:39.681Z,99.90
2019-04-16T00:46:11.185Z,99.90
2019-04-16T00:48:41.076Z,99.90
2019-04-16T00:51:10.683Z,99.90
2019-04-16T00:53:39.693Z,99.90
2019-04-16T00:56:13.464Z,99.90
2019-04-16T00:58:41.377Z,99.90
2019-04-16T01:01:12.463Z,99.90
2019-04-16T01:03:42.500Z,99.90
2019-04-16T01:06:10.879Z,99.90
2019-04-16T01:08:54.045Z,99.90
2019-04-16T01:11:15.124Z,99.90
2019-04-16T01:13:46.708Z,99.90
2019-04-16T01:16:15.781Z,99.90
2019-04-16T01:18:47.105Z,99.90
2019-04-16T01:21:15.685Z,99.90
2019-04-16T01:23:48.392Z,99.90
2019-04-16T01:26:21.024Z,99.90
2019-04-16T01:29:08.975Z,99.90
2019-04-16T01:34:36.861Z,99.90
2019-04-16T01:37:09.362Z,99.90
2019-04-16T01:39:51.748Z,99.90
2019-04-16T01:42:25.809Z,99.90
2019-04-16T01:44:59.365Z,99.90
2019-04-16T01:47:26.417Z,99.90
2019-04-16T01:49:57.737Z,99.90
2019-04-16T01:52:26.379Z,99.90
2019-04-16T01:54:56.432Z,99.90
2019-04-16T01:57:24.870Z,99.90
2019-04-16T01:59:55.779Z,99.90
2019-04-16T02:02:24.157Z,99.90
2019-04-16T02:04:52.814Z,99.90
2019-04-16T02:07:22.056Z,99.90
2019-04-16T02:09:53.369Z,99.90
2019-04-16T02:12:21.757Z,99.90
2019-04-16T02:14:51.068Z,99.90
2019-04-16T02:17:20.112Z,99.90
2019-04-16T02:19:50.129Z,99.90
2019-04-16T02:22:18.521Z,99.90
2019-04-16T02:24:49.565Z,99.90
2019-04-16T02:27:17.956Z,99.90
2019-04-16T02:29:46.581Z,99.90
2019-04-16T02:32:17.616Z,99.90
2019-04-16T02:34:50.038Z,99.90
2019-04-16T02:37:21.505Z,99.90
2019-04-16T02:39:50.127Z,99.90
2019-04-16T02:42:18.519Z,99.90
2019-04-16T02:44:49.834Z,99.90
2019-04-16T02:47:17.192Z,99.90
2019-04-16T02:49:48.777Z,99.90
2019-04-16T02:52:37.037Z,99.90
2019-04-16T02:55:20.038Z,99.90
2019-04-16T02:57:59.620Z,99.90
2019-04-16T03:00:37.232Z,99.90
2019-04-16T03:03:10.113Z,99.90
2019-04-16T03:05:46.324Z,99.90
2019-04-16T03:08:20.645Z,99.90
2019-04-16T03:10:52.231Z,99.90
2019-04-16T03:13:32.272Z,99.90
2019-04-16T03:16:17.009Z,99.90
2019-04-16T03:18:50.069Z,99.90
2019-04-16T03:21:20.548Z,99.90
2019-04-16T03:23:49.190Z,99.90
2019-04-16T03:26:18.654Z,99.90
2019-04-16T03:28:55.682Z,99.90
2019-04-16T03:31:24.155Z,99.90
2019-04-16T03:33:58.625Z,99.90
2019-04-16T03:36:30.352Z,99.90
2019-04-16T03:39:12.044Z,99.90
2019-04-16T03:41:39.832Z,99.90
2019-04-16T03:44:11.284Z,99.90
2019-04-16T03:46:45.972Z,99.90
2019-04-16T03:49:17.293Z,99.90
2019-04-16T03:51:48.288Z,99.90
2019-04-16T03:54:18.877Z,99.90
2019-04-16T03:56:48.990Z,99.90
2019-04-16T03:59:20.302Z,99.90
2019-04-16T04:01:56.046Z,99.90
2019-04-16T04:04:29.283Z,99.90
2019-04-16T04:06:59.538Z,99.90
2019-04-16T04:09:28.778Z,99.90
2019-04-16T04:11:59.652Z,99.90
2019-04-16T04:14:28.281Z,99.90
2019-04-16T04:16:58.344Z,99.90
2019-04-16T04:19:29.146Z,99.90
2019-04-16T04:21:57.528Z,99.90
2019-04-16T04:24:28.473Z,99.90
2019-04-16T04:26:58.925Z,99.90
2019-04-16T04:29:28.979Z,99.90
2019-04-16T04:31:57.583Z,99.90
2019-04-16T04:34:27.997Z,99.90
2019-04-16T04:37:00.799Z,99.90
2019-04-16T04:39:32.249Z,99.90
2019-04-16T04:42:00.710Z,99.90
2019-04-16T04:44:29.089Z,99.90
2019-04-16T04:46:57.490Z,99.90
2019-04-16T04:49:31.493Z,99.90
2019-04-16T04:51:59.998Z,99.90
2019-04-16T04:54:28.457Z,99.90
2019-04-16T04:56:59.266Z,99.90
2019-04-16T04:59:30.732Z,99.90
2019-04-16T05:02:02.011Z,99.90
2019-04-16T05:04:52.457Z,99.90
2019-04-16T05:07:25.650Z,99.90
2019-04-16T05:09:55.785Z,99.90
2019-04-16T05:12:27.086Z,99.90
2019-04-16T05:14:58.414Z,99.90
2019-04-16T05:17:27.229Z,99.90
2019-04-16T05:19:55.609Z,99.90
2019-04-16T05:22:25.120Z,99.90
2019-04-16T05:25:00.862Z,99.90
2019-04-16T05:27:32.226Z,99.90
2019-04-16T05:30:00.659Z,99.90
2019-04-16T05:32:32.888Z,99.90
2019-04-16T05:35:09.166Z,99.90
2019-04-16T05:37:35.752Z,99.90
2019-04-16T05:40:09.097Z,99.90
2019-04-16T05:42:37.495Z,99.90
2019-04-16T05:45:09.233Z,99.90
2019-04-16T05:47:43.421Z,99.90
2019-04-16T05:50:15.041Z,99.90
2019-04-16T05:52:52.000Z,99.90
2019-04-16T05:55:34.251Z,99.90
2019-04-16T05:58:02.642Z,99.90
2019-04-16T06:00:47.666Z,99.90
2019-04-16T06:03:22.303Z,99.90
2019-04-16T06:05:50.912Z,99.90
2019-04-16T06:08:20.941Z,99.90
2019-04-16T06:10:50.908Z,99.90
2019-04-16T06:13:30.107Z,99.90
2019-04-16T06:16:12.133Z,99.90
2019-04-16T06:18:42.180Z,99.90
2019-04-16T06:21:26.820Z,99.90
2019-04-16T06:24:03.112Z,99.90
2019-04-16T06:26:33.717Z,99.90
2019-04-16T06:29:12.805Z,99.90
2019-04-16T06:31:45.948Z,99.90
2019-04-16T06:34:18.936Z,99.90
2019-04-16T06:36:49.603Z,99.90
2019-04-16T06:39:22.357Z,99.90
2019-04-16T06:42:08.810Z,99.90
2019-04-16T06:44:54.193Z,99.90
2019-04-16T06:47:26.323Z,99.90
2019-04-16T06:50:01.891Z,99.90
2019-04-16T06:52:40.858Z,99.90
2019-04-16T06:55:14.235Z,99.50
2019-04-16T06:57:47.309Z,99.00
2019-04-16T07:00:23.449Z,98.20
2019-04-16T07:03:13.545Z,98.90
2019-04-16T07:05:46.061Z,98.10
2019-04-16T07:08:22.082Z,98.30
2019-04-16T07:11:10.401Z,97.50
2019-04-16T07:13:41.903Z,96.90
2019-04-16T07:16:10.698Z,97.00
2019-04-16T07:18:41.548Z,95.60
2019-04-16T07:21:09.929Z,94.70
2019-04-16T07:23:38.529Z,94.60
2019-04-16T07:26:06.930Z,94.90
2019-04-16T07:28:42.846Z,95.60
2019-04-16T07:31:31.808Z,96.10
2019-04-16T07:34:06.478Z,96.20
2019-04-16T07:36:42.494Z,95.50
2019-04-16T07:39:28.248Z,95.40
2019-04-16T07:42:08.378Z,95.00
2019-04-16T07:44:29.567Z,94.50
2019-04-16T07:47:11.289Z,94.10
2019-04-16T07:49:44.276Z,95.20
2019-04-16T07:52:29.530Z,95.00
2019-04-16T07:55:10.945Z,95.50
2019-04-16T07:57:39.332Z,95.70
2019-04-16T08:00:14.701Z,96.10
2019-04-16T08:02:44.369Z,95.00
2019-04-16T08:05:12.714Z,95.00
2019-04-16T08:07:42.431Z,94.00
2019-04-16T08:10:12.218Z,94.20
2019-04-16T08:12:42.400Z,92.60
2019-04-16T08:15:15.490Z,92.90
2019-04-16T08:17:44.501Z,91.80
2019-04-16T08:20:14.061Z,91.40
2019-04-16T08:22:49.273Z,90.90
2019-04-16T08:25:19.301Z,91.80
2019-04-16T08:27:50.785Z,91.40
2019-04-16T08:30:22.689Z,90.70
2019-04-16T08:32:51.085Z,90.00
2019-04-16T08:35:19.492Z,89.60
2019-04-16T08:37:49.048Z,90.40
2019-04-16T08:40:19.893Z,88.50
2019-04-16T08:42:48.325Z,90.20
2019-04-16T08:45:20.366Z,89.40
2019-04-16T08:47:47.130Z,89.30
2019-04-16T08:50:15.705Z,87.90
2019-04-16T08:52:47.070Z,88.50
2019-04-16T08:55:20.490Z,88.10
2019-04-16T08:57:48.405Z,87.40
2019-04-16T09:00:19.591Z,85.10
2019-04-16T09:02:48.280Z,81.60
2019-04-16T09:05:28.021Z,80.10
2019-04-16T09:08:10.885Z,77.90
2019-04-16T09:10:30.869Z,78.40
2019-04-16T09:13:03.814Z,75.30
2019-04-16T09:15:37.718Z,77.30
2019-04-16T09:18:10.809Z,75.50
2019-04-16T09:20:40.843Z,76.50
2019-04-16T09:23:09.246Z,75.70
2019-04-16T09:26:12.129Z,76.80
2019-04-16T09:28:36.548Z,76.00
2019-04-16T09:31:23.648Z,76.40
2019-04-16T09:33:57.402Z,79.90
2019-04-16T09:36:44.744Z,75.70
2019-04-16T09:39:20.314Z,76.20
2019-04-16T09:41:49.252Z,74.20
2019-04-16T09:44:22.564Z,77.40
2019-04-16T09:46:52.664Z,72.70
2019-04-16T09:49:21.657Z,74.10
2019-04-16T09:51:51.129Z,72.10
2019-04-16T09:54:20.236Z,72.60
2019-04-16T09:56:48.633Z,70.30
2019-04-16T09:59:18.661Z,71.90
2019-04-16T10:01:53.093Z,71.90
2019-04-16T10:04:22.217Z,71.80
2019-04-16T10:06:54.109Z,70.30
2019-04-16T10:09:26.880Z,70.50
2019-04-16T10:11:57.915Z,70.10
2019-04-16T10:14:32.097Z,73.70
2019-04-16T10:17:00.729Z,71.10
2019-04-16T10:19:32.073Z,68.70
2019-04-16T10:22:00.618Z,70.50
2019-04-16T10:24:54.662Z,70.90
2019-04-16T10:27:32.271Z,69.60
2019-04-16T10:30:02.127Z,68.00
2019-04-16T10:32:36.549Z,69.50
2019-04-16T10:35:07.845Z,68.70
2019-04-16T10:37:36.238Z,70.00
2019-04-16T10:40:15.563Z,69.80
2019-04-16T10:43:00.940Z,68.90
2019-04-16T10:45:46.034Z,69.50
2019-04-16T10:48:32.341Z,70.30
2019-04-16T10:51:15.256Z,72.30
2019-04-16T10:54:01.367Z,71.10
2019-04-16T10:56:47.904Z,71.40
2019-04-16T10:59:17.928Z,69.30
2019-04-16T11:01:48.017Z,67.70
2019-04-16T11:04:24.043Z,70.40
2019-04-16T11:06:57.076Z,70.80
2019-04-16T11:09:25.463Z,67.60
2019-04-16T11:11:53.851Z,69.00
2019-04-16T11:14:22.520Z,69.90
2019-04-16T11:16:54.448Z,69.20
2019-04-16T11:19:24.710Z,69.30
2019-04-16T11:21:56.047Z,68.40
2019-04-16T11:24:27.733Z,68.40
2019-04-16T11:27:00.725Z,69.20
2019-04-16T11:29:29.137Z,69.20
2019-04-16T11:31:59.397Z,70.30
2019-04-16T11:34:32.153Z,68.10
2019-04-16T11:37:07.259Z,68.50
2019-04-16T11:39:36.110Z,68.90
2019-04-16T11:42:08.218Z,70.40
2019-04-16T11:44:46.129Z,69.40
2019-04-16T11:47:16.178Z,68.40
2019-04-16T11:49:44.721Z,70.20
2019-04-16T11:52:13.150Z,71.40
2019-04-16T11:54:50.257Z,70.70
2019-04-16T11:57:24.252Z,72.70
2019-04-16T12:00:06.027Z,73.00
2019-04-16T12:02:38.778Z,74.70
2019-04-16T12:05:11.734Z,72.80
2019-04-16T12:07:53.675Z,70.50
2019-04-16T12:10:38.982Z,68.80
2019-04-16T12:13:23.989Z,69.90
2019-04-16T12:16:09.889Z,70.70
2019-04-16T12:18:39.933Z,71.10
2019-04-16T12:21:15.914Z,70.50
2019-04-16T12:23:54.998Z,69.60
2019-04-16T12:26:25.075Z,72.00
2019-04-16T12:29:06.852Z,69.40
2019-04-16T12:31:40.123Z,70.10
2019-04-16T12:34:16.569Z,70.20
2019-04-16T12:36:52.618Z,72.50
2019-04-16T12:39:35.922Z,71.90
2019-04-16T12:42:14.784Z,72.60
2019-04-16T12:44:56.143Z,75.70
2019-04-16T12:47:26.200Z,74.00
2019-04-16T12:49:59.511Z,72.40
2019-04-16T12:52:46.094Z,72.50
2019-04-16T12:55:16.125Z,72.10
2019-04-16T12:57:47.264Z,74.00
2019-04-16T13:00:19.849Z,74.70
2019-04-16T13:02:55.741Z,71.80
2019-04-16T13:05:44.707Z,74.10
2019-04-16T13:08:15.094Z,71.30
2019-04-16T13:10:53.998Z,68.40
2019-04-16T13:13:29.696Z,69.00
2019-04-16T13:16:02.432Z,70.40
2019-04-16T13:18:32.477Z,70.10
2019-04-16T13:21:08.158Z,73.10
2019-04-16T13:23:49.981Z,71.20
2019-04-16T13:26:20.010Z,71.50
2019-04-16T13:28:55.241Z,73.50
2019-04-16T13:31:24.488Z,71.20
2019-04-16T13:33:53.675Z,72.30
2019-04-16T13:36:26.928Z,74.60
2019-04-16T13:39:09.368Z,74.80
2019-04-16T13:41:38.227Z,75.50
2019-04-16T13:44:16.954Z,75.20
2019-04-16T13:46:44.248Z,76.80
2019-04-16T13:49:14.288Z,77.90
2019-04-16T13:51:44.969Z,76.30
2019-04-16T13:54:40.013Z,73.80
2019-04-16T13:57:13.011Z,73.70
2019-04-16T14:00:04.377Z,72.60
2019-04-16T14:02:39.811Z,72.80
2019-04-16T14:05:10.858Z,73.10
2019-04-16T14:07:39.329Z,71.60
2019-04-16T14:10:10.266Z,67.30
2019-04-16T14:12:42.647Z,68.00
2019-04-16T14:15:30.827Z,67.50
2019-04-16T14:17:52.763Z,65.60
2019-04-16T14:20:18.169Z,66.00
2019-04-16T14:22:58.697Z,64.70
2019-04-16T14:25:27.525Z,64.50
2019-04-16T14:28:03.150Z,64.70
2019-04-16T14:30:31.593Z,64.40
2019-04-16T14:33:00.026Z,66.10
2019-04-16T14:35:40.265Z,66.90
2019-04-16T14:38:14.621Z,66.60
2019-04-16T14:40:43.108Z,66.80
2019-04-16T14:43:13.325Z,68.70
2019-04-16T14:45:57.617Z,67.90
2019-04-16T14:48:13.544Z,68.00
2019-04-16T14:50:42.610Z,68.70
2019-04-16T14:53:11.073Z,68.80
2019-04-16T14:55:43.695Z,68.60
2019-04-16T14:58:30.162Z,67.80
2019-04-16T15:01:00.435Z,66.90
2019-04-16T15:03:46.757Z,69.00
2019-04-16T15:06:25.918Z,68.20
2019-04-16T15:09:01.838Z,70.70
2019-04-16T15:11:49.768Z,70.00
2019-04-16T15:14:23.459Z,71.40
2019-04-16T15:17:12.997Z,71.60
2019-04-16T15:19:48.528Z,71.00
2019-04-16T15:22:30.889Z,71.60
2019-04-16T15:25:20.301Z,71.70
2019-04-16T15:27:56.584Z,73.60
2019-04-16T15:30:43.885Z,74.00
2019-04-16T15:33:21.185Z,74.10
2019-04-16T15:35:52.021Z,75.40
2019-04-16T15:38:29.598Z,76.00
2019-04-16T15:41:17.571Z,74.50
2019-04-16T15:44:03.892Z,74.10
2019-04-16T15:46:46.200Z,77.10
2019-04-16T15:49:25.089Z,77.00
2019-04-16T15:52:01.522Z,77.90
2019-04-16T15:54:43.535Z,78.10
2019-04-16T15:57:36.113Z,78.30
2019-04-16T16:00:16.065Z,79.70
2019-04-16T16:03:01.554Z,80.20
2019-04-16T16:05:32.125Z,77.80
2019-04-16T16:08:23.275Z,78.30
2019-04-16T16:10:55.980Z,78.40
2019-04-16T16:13:26.497Z,80.20
2019-04-16T16:16:02.113Z,79.60
2019-04-16T16:18:30.586Z,80.00
2019-04-16T16:21:00.878Z,80.70
2019-04-16T16:23:33.040Z,81.60
2019-04-16T16:26:05.541Z,81.60
2019-04-16T16:28:38.874Z,82.20
2019-04-16T16:31:07.272Z,82.60
2019-04-16T16:33:41.373Z,82.50
2019-04-16T16:36:12.466Z,83.10
2019-04-16T16:38:50.233Z,83.40
2019-04-16T16:41:18.629Z,83.70
2019-04-16T16:43:50.487Z,83.90
2019-04-16T16:46:21.291Z,84.70
2019-04-16T16:48:51.077Z,85.10
2019-04-16T16:51:22.894Z,85.90
2019-04-16T16:54:09.785Z,87.60
2019-04-16T16:56:51.852Z,88.50
2019-04-16T16:59:27.586Z,88.70
2019-04-16T17:02:10.244Z,88.50
2019-04-16T17:04:41.801Z,89.30
2019-04-16T17:07:17.789Z,90.00
2019-04-16T17:09:46.381Z,89.50
2019-04-16T17:12:14.784Z,89.40
2019-04-16T17:14:43.258Z,90.00
2019-04-16T17:17:15.089Z,90.00
2019-04-16T17:19:43.350Z,90.20
2019-04-16T17:22:17.436Z,90.60
2019-04-16T17:24:45.959Z,90.90
2019-04-16T17:27:14.363Z,91.30
2019-04-16T17:29:42.761Z,91.50
2019-04-16T17:32:11.469Z,91.80
2019-04-16T17:34:42.932Z,93.30
2019-04-16T17:37:12.956Z,94.50
2019-04-16T17:39:48.349Z,95.60
2019-04-16T17:42:21.065Z,96.40
2019-04-16T17:44:51.085Z,97.60
2019-04-16T17:47:37.437Z,98.80
2019-04-16T17:50:23.177Z,99.70
2019-04-16T17:53:10.101Z,99.90
2019-04-16T17:55:56.437Z,99.90
2019-04-16T17:58:36.364Z,99.90
2019-04-16T18:01:24.324Z,99.90
2019-04-16T18:04:11.637Z,99.90
2019-04-16T18:06:51.842Z,99.90
2019-04-16T18:09:33.441Z,99.90
2019-04-16T18:12:03.465Z,99.90
2019-04-16T18:14:50.133Z,99.90
2019-04-16T18:17:46.088Z,99.90
2019-04-16T18:20:06.340Z,99.90
2019-04-16T18:22:52.702Z,99.90
2019-04-16T18:25:55.046Z,99.90
2019-04-16T18:28:17.686Z,99.90
2019-04-16T18:30:50.695Z,99.90
2019-04-16T18:33:23.430Z,99.90
2019-04-16T18:35:53.541Z,99.90
2019-04-16T18:38:23.565Z,99.90
2019-04-16T18:41:02.458Z,99.90
2019-04-16T18:43:37.089Z,99.90
2019-04-16T18:46:15.793Z,99.90
2019-04-16T18:49:08.097Z,99.90
2019-04-16T18:51:39.150Z,99.90
2019-04-16T18:54:09.183Z,99.90
2019-04-16T18:56:38.589Z,99.90
2019-04-16T18:59:41.570Z,99.90
2019-04-16T19:01:46.363Z,99.90
2019-04-16T19:04:14.741Z,99.90
2019-04-16T19:06:43.164Z,99.90
2019-04-16T19:09:16.125Z,99.90
2019-04-16T19:11:44.543Z,99.90
2019-04-16T19:14:14.806Z,99.90
2019-04-16T19:16:43.202Z,99.90
2019-04-16T19:19:11.854Z,99.90
2019-04-16T19:21:42.491Z,99.90
2019-04-16T19:24:14.669Z,99.90
2019-04-16T19:26:44.701Z,99.90
2019-04-16T19:29:16.314Z,99.90
2019-04-16T19:31:48.431Z,99.90
2019-04-16T19:34:17.024Z,99.90
2019-04-16T19:36:46.894Z,99.90
2019-04-16T19:39:15.736Z,99.90
2019-04-16T19:41:45.128Z,99.90
2019-04-16T19:44:13.505Z,99.90
2019-04-16T19:46:45.996Z,99.90
2019-04-16T19:49:17.839Z,99.90
2019-04-16T19:51:46.646Z,99.90
2019-04-16T19:54:15.033Z,99.90
2019-04-16T19:56:43.422Z,99.90
2019-04-16T19:59:17.617Z,99.90
2019-04-16T20:01:50.446Z,99.90
2019-04-16T20:04:24.422Z,99.90
2019-04-16T20:06:59.721Z,99.90
2019-04-16T20:09:28.155Z,99.90
2019-04-16T20:11:59.666Z,99.90
2019-04-16T20:14:35.751Z,99.90
2019-04-16T20:17:03.006Z,99.90
2019-04-16T20:19:31.445Z,99.90
2019-04-16T20:22:00.474Z,99.90
2019-04-16T20:24:28.858Z,99.90
2019-04-16T20:26:57.237Z,99.90
2019-04-16T20:29:25.646Z,99.90
2019-04-16T20:31:54.029Z,99.90
2019-04-16T20:34:22.656Z,99.90
2019-04-16T20:36:56.788Z,99.90
2019-04-16T20:39:24.137Z,99.90
2019-04-16T20:41:54.045Z,99.90
2019-04-16T20:44:22.636Z,99.90
2019-04-16T20:46:51.033Z,99.90
2019-04-16T20:49:29.104Z,99.90
2019-04-16T20:52:04.223Z,99.90
2019-04-16T20:54:36.073Z,99.90
2019-04-16T20:57:06.341Z,99.90
2019-04-16T20:59:36.023Z,99.90
2019-04-16T21:02:07.509Z,99.90
2019-04-16T21:04:38.849Z,99.90
2019-04-16T21:07:16.495Z,99.90
2019-04-16T21:09:41.993Z,99.90
2019-04-16T21:12:13.309Z,99.90
2019-04-16T21:14:46.436Z,99.90
2019-04-16T21:17:16.462Z,99.90
2019-04-16T21:19:49.371Z,99.90
2019-04-16T21:22:24.976Z,99.90
2019-04-16T21:24:53.818Z,99.90
2019-04-16T21:27:34.336Z,99.90
2019-04-16T21:30:08.593Z,99.90
2019-04-16T21:32:52.685Z,99.90
2019-04-16T21:35:22.717Z,99.90
2019-04-16T21:37:55.975Z,99.90
2019-04-16T21:40:24.880Z,99.90
2019-04-16T21:42:53.258Z,99.90
2019-04-16T21:45:23.435Z,99.90
2019-04-16T21:47:54.794Z,99.90
2019-04-16T21:50:23.580Z,99.90
2019-04-16T21:52:55.678Z,99.90
2019-04-16T21:55:28.177Z,99.90
2019-04-16T21:57:56.599Z,99.90
2019-04-16T22:00:35.841Z,99.90
2019-04-16T22:03:09.434Z,99.90
2019-04-16T22:05:36.565Z,99.90
2019-04-16T22:08:05.617Z,99.90
2019-04-16T22:10:46.382Z,99.90
2019-04-16T22:13:19.131Z,99.90
2019-04-16T22:15:57.497Z,99.90
2019-04-16T22:18:26.407Z,99.90
2019-04-16T22:20:56.433Z,99.90
2019-04-16T22:23:26.473Z,99.90
2019-04-16T22:25:57.151Z,99.90
2019-04-16T22:28:31.041Z,99.90
2019-04-16T22:30:59.424Z,99.90
2019-04-16T22:33:33.650Z,99.90
2019-04-16T22:36:02.022Z,99.90
2019-04-16T22:38:37.421Z,99.90
2019-04-16T22:41:07.476Z,99.90
2019-04-16T22:43:52.569Z,99.90
2019-04-16T22:46:25.724Z,99.90
2019-04-16T22:48:58.428Z,99.90
2019-04-16T22:51:30.666Z,99.90
2019-04-16T22:54:07.681Z,99.90
2019-04-16T22:56:40.204Z,99.90
2019-04-16T22:59:17.117Z,99.90
2019-04-16T23:01:47.148Z,99.90
2019-04-16T23:04:15.527Z,99.90
2019-04-16T23:06:48.280Z,99.90
2019-04-16T23:09:17.874Z,99.90
2019-04-16T23:11:52.739Z,99.90
2019-04-16T23:14:19.164Z,99.90
2019-04-16T23:16:50.396Z,99.90
2019-04-16T23:19:21.694Z,99.90
2019-04-16T23:21:50.107Z,99.90
2019-04-16T23:24:23.047Z,99.90
2019-04-16T23:26:53.624Z,99.90
2019-04-16T23:29:28.313Z,99.90
2019-04-16T23:31:59.849Z,99.90
2019-04-16T23:34:29.869Z,99.90
2019-04-16T23:36:58.738Z,99.90
2019-04-16T23:39:28.777Z,99.90
2019-04-16T23:41:58.575Z,99.90
2019-04-16T23:44:31.613Z,99.90
2019-04-16T23:47:18.090Z,99.90
2019-04-16T23:49:51.052Z,99.90
2019-04-16T23:52:39.232Z,99.90
2019-04-16T23:55:21.093Z,99.90
2019-04-16T23:58:07.385Z,99.90
